Time;durP1;ratioP1;P1;durP2;ratioP2;P2;SDS_P1;SDS_P2;PMS_P1;PMS_P2;Temp;Humidity;BMP_temperature;BMP_pressure;BME280_temperature;BME280_humidity;BME280_pressure;Samples;Min_cycle;Max_cycle;Signal;HPM_P1;HPM_P2
2023/01/11 00:01:26;;;;;;;0.30;0.20;;;;;;;6.85;100.00;94571.09;5113901;28;20550;-57
2023/01/11 00:03:55;;;;;;;0.50;0.50;;;;;;;7.18;100.00;94590.84;5114114;28;20862;-57
2023/01/11 00:06:24;;;;;;;0.30;0.20;;;;;;;7.36;100.00;94606.88;5113827;28;20587;-56
2023/01/11 00:08:58;;;;;;;2.10;0.33;;;;;;;6.39;100.00;94463.16;5113711;28;20794;-57
2023/01/11 00:11:27;;;;;;;0.30;0.20;;;;;;;7.67;100.00;94613.69;5113681;28;20429;-57
2023/01/11 00:13:55;;;;;;;0.30;0.20;;;;;;;7.32;100.00;94624.28;5113600;28;20463;-57
2023/01/11 00:16:24;;;;;;;0.30;0.20;;;;;;;7.13;100.00;94622.47;5113984;28;20421;-57
2023/01/11 00:18:52;;;;;;;0.30;0.30;;;;;;;6.99;100.00;94627.44;5113975;28;20417;-56
2023/01/11 00:21:21;;;;;;;0.30;0.20;;;;;;;7.04;100.00;94636.16;5113476;28;20497;-57
2023/01/11 00:23:51;;;;;;;0.30;0.20;;;;;;;6.67;100.00;94566.34;5113441;28;20432;-57
2023/01/11 00:26:19;;;;;;;0.33;0.27;;;;;;;7.16;100.00;94624.56;5113318;28;20424;-56
2023/01/11 00:28:48;;;;;;;0.40;0.30;;;;;;;7.35;100.00;94634.31;5113264;28;20428;-56
2023/01/11 00:31:17;;;;;;;0.30;0.20;;;;;;;7.26;100.00;94638.50;5113530;28;20440;-56
2023/01/11 00:33:45;;;;;;;0.40;0.37;;;;;;;7.14;100.00;94618.75;5113294;28;20424;-56
2023/01/11 00:36:14;;;;;;;0.30;0.20;;;;;;;7.23;100.00;94641.69;5113236;28;20421;-56
2023/01/11 00:38:45;;;;;;;0.30;0.20;;;;;;;7.28;100.00;94610.06;5113449;28;20425;-56
2023/01/11 00:49:42;;;;;;;0.30;0.20;;;;;;;7.23;100.00;94641.69;5112374;28;20433;-57
2023/01/11 00:52:11;;;;;;;0.47;0.47;;;;;;;7.18;100.00;94652.25;5112795;28;20430;-57
2023/01/11 00:54:41;;;;;;;0.30;0.20;;;;;;;7.18;100.00;94657.50;5112915;28;20454;-57
2023/01/11 00:57:11;;;;;;;0.40;0.30;;;;;;;7.42;100.00;94652.47;5112557;28;20428;-58
2023/01/11 00:59:40;;;;;;;0.30;0.20;;;;;;;7.54;100.00;94655.63;5112678;28;20445;-57
2023/01/11 01:02:09;;;;;;;0.30;0.20;;;;;;;7.26;100.00;94659.59;5112824;28;20471;-56
2023/01/11 01:04:38;;;;;;;0.40;0.30;;;;;;;7.16;100.00;94612.16;5112500;28;20429;-56
2023/01/11 01:07:07;;;;;;;0.30;0.20;;;;;;;6.96;100.00;94612.16;5112659;28;20436;-56
2023/01/11 01:09:35;;;;;;;0.57;0.30;;;;;;;7.32;99.75;94612.94;5112420;28;20430;-56
2023/01/11 01:12:05;;;;;;;0.30;0.20;;;;;;;7.13;97.61;94660.16;5112427;28;20896;-56
2023/01/11 01:14:35;;;;;;;6.37;1.00;;;;;;;7.59;100.00;94660.88;5111541;28;20839;-56
2023/01/11 01:17:07;;;;;;;0.30;0.20;;;;;;;8.08;97.44;94659.19;5112220;28;20541;-56
2023/01/11 01:19:37;;;;;;;0.40;0.20;;;;;;;8.25;97.96;94653.56;5112133;28;20470;-57
2023/01/11 01:22:06;;;;;;;0.30;0.20;;;;;;;8.19;98.41;94655.47;5112232;28;20464;-56
2023/01/11 01:24:34;;;;;;;0.30;0.20;;;;;;;8.12;97.51;94662.88;5112370;28;20420;-56
2023/01/11 01:27:02;;;;;;;0.30;0.30;;;;;;;7.46;99.14;94656.19;5111627;28;20800;-56
2023/01/11 01:29:31;;;;;;;0.40;0.30;;;;;;;7.54;100.00;94655.63;5112209;28;20939;-57
2023/01/11 01:32:00;;;;;;;0.30;0.20;;;;;;;7.35;100.00;94662.50;5112477;28;20427;-58
2023/01/11 01:34:29;;;;;;;0.30;0.20;;;;;;;7.16;100.00;94667.50;5112270;28;20421;-57
2023/01/11 01:36:57;;;;;;;2.23;0.40;;;;;;;6.93;100.00;94668.81;5112327;28;20503;-57
2023/01/11 01:39:25;;;;;;;0.30;0.20;;;;;;;7.05;100.00;94681.75;5111937;28;20423;-57
2023/01/11 01:41:56;;;;;;;0.30;0.20;;;;;;;7.03;100.00;94681.22;5111896;28;20471;-57
2023/01/11 01:44:53;;;;;;;0.30;0.20;;;;;;;6.79;100.00;94680.91;5111936;28;21016;-57
2023/01/11 01:47:27;;;;;;;0.30;0.20;;;;;;;7.11;100.00;94643.78;5111719;28;20451;-57
2023/01/11 01:49:57;;;;;;;0.30;0.20;;;;;;;7.40;98.45;94663.28;5111605;28;20554;-57
2023/01/11 01:52:28;;;;;;;0.30;0.20;;;;;;;7.40;95.83;94681.75;5111823;28;20458;-57
2023/01/11 01:55:00;;;;;;;0.30;0.20;;;;;;;7.48;96.23;94681.22;5112186;28;20459;-57
2023/01/11 01:57:34;;;;;;;1.53;0.73;;;;;;;7.15;98.56;94689.66;5111907;28;20459;-57
2023/01/11 02:00:07;;;;;;;0.30;0.20;;;;;;;7.33;97.73;94688.34;5112158;28;20422;-57
2023/01/11 02:02:38;;;;;;;0.40;0.20;;;;;;;7.24;96.65;94687.28;5111764;28;21002;-57
2023/01/11 02:05:08;;;;;;;0.30;0.20;;;;;;;7.03;97.57;94681.22;5112036;28;20438;-57
2023/01/11 02:07:40;;;;;;;0.40;0.30;;;;;;;7.01;100.00;94691.19;5111763;28;20923;-57
2023/01/11 02:10:10;;;;;;;1.13;1.13;;;;;;;6.90;100.00;94697.53;5112058;28;20424;-57
2023/01/11 02:12:42;;;;;;;0.40;0.30;;;;;;;6.77;100.00;94700.66;5114858;28;20422;-57
2023/01/11 02:15:11;;;;;;;0.30;0.30;;;;;;;6.56;100.00;94696.38;5115843;28;20420;-57
2023/01/11 02:17:41;;;;;;;0.57;0.57;;;;;;;6.17;100.00;94646.00;5115037;28;20424;-57
2023/01/11 02:20:20;;;;;;;0.40;0.20;;;;;;;6.41;100.00;94689.22;5116016;28;20473;-57
2023/01/11 02:23:09;;;;;;;0.37;0.27;;;;;;;6.37;100.00;94694.19;5115555;28;20463;-57
2023/01/11 02:26:17;;;;;;;0.40;0.30;;;;;;;6.47;100.00;94687.41;5115541;28;20427;-57
2023/01/11 02:28:53;;;;;;;0.97;0.83;;;;;;;6.47;100.00;94692.69;5115470;28;20439;-57
2023/01/11 02:31:30;;;;;;;0.40;0.33;;;;;;;6.34;100.00;94689.47;5115309;28;20419;-57
2023/01/11 02:34:15;;;;;;;1.57;0.60;;;;;;;6.24;100.00;94689.44;5115181;28;20427;-57
2023/01/11 02:37:01;;;;;;;1.10;1.10;;;;;;;6.41;100.00;94681.34;5115317;28;20477;-57
2023/01/11 02:39:39;;;;;;;0.47;0.30;;;;;;;6.45;100.00;94703.47;5115258;28;21009;-57
2023/01/11 02:45:12;;;;;;;0.30;0.20;;;;;;;6.09;100.00;94686.75;5114146;28;20472;-58
2023/01/11 02:47:48;;;;;;;4.60;0.27;;;;;;;5.64;100.00;94618.88;5115124;28;20449;-57
2023/01/11 02:50:21;;;;;;;0.50;0.40;;;;;;;6.00;100.00;94674.31;5114855;28;21007;-57
2023/01/11 02:52:56;;;;;;;0.30;0.20;;;;;;;6.12;100.00;94680.94;5114615;28;20993;-57
2023/01/11 02:55:30;;;;;;;0.30;0.20;;;;;;;5.97;100.00;94672.22;5114219;28;20420;-55
2023/01/11 02:58:02;;;;;;;0.30;0.20;;;;;;;6.03;100.00;94682.50;5114066;28;20456;-56
2023/01/11 03:00:33;;;;;;;0.30;0.20;;;;;;;5.97;100.00;94674.84;5114018;28;20419;-56
2023/01/11 03:03:12;;;;;;;0.30;0.20;;;;;;;6.44;100.00;94688.72;5113914;28;20475;-56
2023/01/11 03:05:49;;;;;;;0.70;0.50;;;;;;;6.11;100.00;94645.19;5113974;28;20434;-56
2023/01/11 03:08:39;;;;;;;0.40;0.30;;;;;;;6.24;100.00;94680.75;5113958;28;20868;-56
2023/01/11 03:11:13;;;;;;;0.50;0.40;;;;;;;6.37;100.00;94694.19;5114509;28;20454;-56
2023/01/11 03:13:53;;;;;;;2.00;0.83;;;;;;;6.26;100.00;94665.50;5114243;28;20552;-56
2023/01/11 03:16:27;;;;;;;0.70;0.70;;;;;;;5.95;100.00;94648.00;5114409;28;20827;-56
2023/01/11 03:19:13;;;;;;;1.33;1.33;;;;;;;6.34;100.00;94696.56;5114555;28;20416;-56
2023/01/11 03:21:56;;;;;;;0.70;0.70;;;;;;;6.35;100.00;94698.94;5114164;28;20464;-56
2023/01/11 03:24:32;;;;;;;0.50;0.40;;;;;;;6.01;100.00;94710.91;5114533;28;20939;-56
2023/01/11 03:27:17;;;;;;;2.77;0.67;;;;;;;5.98;100.00;94708.78;5114276;28;20491;-56
2023/01/11 03:29:52;;;;;;;0.50;0.30;;;;;;;5.89;100.00;94715.56;5114345;28;20442;-56
2023/01/11 03:32:32;;;;;;;0.67;0.67;;;;;;;5.82;100.00;94712.31;5114100;28;20419;-56
2023/01/11 03:35:16;;;;;;;0.40;0.40;;;;;;;5.81;100.00;94715.22;5114149;28;20416;-56
2023/01/11 03:37:51;;;;;;;5.90;0.90;;;;;;;6.03;100.00;94713.25;5114123;28;20423;-56
2023/01/11 03:40:23;;;;;;;0.40;0.40;;;;;;;6.12;100.00;94704.63;5114068;28;20454;-56
2023/01/11 03:43:12;;;;;;;0.90;0.90;;;;;;;6.09;100.00;94714.88;5113967;28;20460;-56
2023/01/11 03:45:46;;;;;;;0.40;0.40;;;;;;;5.95;100.00;94717.16;5113941;28;20445;-57
2023/01/11 03:48:20;;;;;;;2.77;2.63;;;;;;;6.02;100.00;94717.72;5114126;28;20518;-56
2023/01/11 03:50:51;;;;;;;0.50;0.50;;;;;;;6.11;100.00;94720.69;5113652;28;20483;-56
2023/01/11 03:53:23;;;;;;;1.43;1.33;;;;;;;6.02;100.00;94711.69;5113557;28;20955;-57
2023/01/11 03:55:55;;;;;;;1.07;1.07;;;;;;;6.55;100.00;94710.59;5113743;28;20511;-57
2023/01/11 03:58:25;;;;;;;1.13;1.13;;;;;;;6.52;100.00;94732.19;5113454;28;20445;-57
2023/01/11 04:00:55;;;;;;;0.70;0.70;;;;;;;6.83;100.00;94734.63;5113440;28;20427;-57
2023/01/11 04:03:27;;;;;;;1.67;1.57;;;;;;;6.72;100.00;94735.69;5113389;28;20468;-56
2023/01/11 04:05:59;;;;;;;2.07;1.87;;;;;;;6.71;100.00;94699.06;5113549;28;20432;-57
2023/01/11 04:08:27;;;;;;;3.60;1.23;;;;;;;6.52;100.00;94671.63;5113490;28;21038;-57
2023/01/11 04:10:56;;;;;;;1.87;1.77;;;;;;;6.94;100.00;94735.44;5113421;28;20511;-56
2023/01/11 04:13:24;;;;;;;0.43;0.40;;;;;;;6.77;100.00;94687.50;5113489;28;20427;-57
2023/01/11 04:15:53;;;;;;;1.07;1.07;;;;;;;6.98;100.00;94747.06;5113392;28;20437;-57
2023/01/11 04:18:22;;;;;;;0.50;0.50;;;;;;;6.95;100.00;94758.13;5113691;28;20503;-57
2023/01/11 04:20:51;;;;;;;0.40;0.40;;;;;;;7.30;100.00;94750.28;5113312;28;20492;-57
2023/01/11 04:23:20;;;;;;;1.13;1.13;;;;;;;7.64;100.00;94746.06;5113217;28;20551;-57
2023/01/11 04:25:48;;;;;;;1.50;1.40;;;;;;;7.81;100.00;94752.91;5113284;28;20947;-57
2023/01/11 04:28:16;;;;;;;0.50;0.50;;;;;;;7.95;100.00;94754.75;5113250;28;20511;-57
2023/01/11 04:30:44;;;;;;;6.80;1.83;;;;;;;7.98;100.00;94751.59;5113152;28;20728;-56
2023/01/11 04:33:13;;;;;;;0.40;0.30;;;;;;;8.01;100.00;94755.53;5113273;28;20416;-57
2023/01/11 04:35:42;;;;;;;0.93;0.93;;;;;;;7.95;100.00;94746.84;5112056;28;20421;-57
2023/01/11 04:38:12;;;;;;;0.73;0.73;;;;;;;8.03;100.00;94748.13;5113132;28;20424;-57
2023/01/11 04:40:40;;;;;;;11.33;0.83;;;;;;;7.93;100.00;94753.44;5113236;28;20593;-57
2023/01/11 04:43:08;;;;;;;0.90;0.90;;;;;;;7.88;100.00;94756.06;5112716;28;20547;-57
2023/01/11 04:45:36;;;;;;;0.40;0.40;;;;;;;7.88;100.00;94764.78;5112880;28;20460;-57
2023/01/11 04:48:07;;;;;;;0.40;0.30;;;;;;;7.76;100.00;94764.28;5112777;28;20432;-57
2023/01/11 04:50:35;;;;;;;0.70;0.70;;;;;;;7.77;100.00;94765.06;5112598;28;20471;-57
2023/01/11 04:53:03;;;;;;;0.50;0.30;;;;;;;7.78;100.00;94772.72;5112038;28;20436;-57
2023/01/11 04:55:33;;;;;;;0.53;0.53;;;;;;;7.55;100.00;94762.69;5112100;28;20427;-57
2023/01/11 04:58:01;;;;;;;0.40;0.30;;;;;;;7.55;100.00;94795.13;5111901;28;20420;-57
2023/01/11 05:00:30;;;;;;;0.97;0.97;;;;;;;6.91;100.00;94802.63;5111731;28;20430;-57
2023/01/11 05:03:02;;;;;;;0.90;0.90;;;;;;;6.86;100.00;94804.44;5112483;28;20475;-57
2023/01/11 05:05:30;;;;;;;2.00;1.93;;;;;;;6.57;100.00;94808.53;5112431;28;20478;-56
2023/01/11 05:07:58;;;;;;;1.30;1.20;;;;;;;6.82;100.00;94819.19;5112104;28;21024;-56
2023/01/11 05:10:26;;;;;;;1.47;1.40;;;;;;;6.83;100.00;94826.06;5112071;28;20928;-57
2023/01/11 05:12:56;;;;;;;0.47;0.40;;;;;;;6.83;100.00;94826.81;5112101;28;20912;-57
2023/01/11 05:15:24;;;;;;;0.30;0.20;;;;;;;7.04;100.00;94830.31;5112046;28;20424;-56
2023/01/11 05:17:53;;;;;;;0.50;0.33;;;;;;;7.20;100.00;94834.59;5112346;28;20477;-56
2023/01/11 05:20:21;;;;;;;0.40;0.30;;;;;;;7.08;100.00;94805.06;5111861;28;20429;-57
2023/01/11 05:22:49;;;;;;;2.00;0.80;;;;;;;7.33;100.00;94849.94;5111797;28;20464;-56
2023/01/11 05:25:18;;;;;;;0.80;0.70;;;;;;;7.37;100.00;94837.81;5112039;28;20429;-56
2023/01/11 05:27:46;;;;;;;0.70;0.70;;;;;;;7.39;100.00;94840.16;5111652;28;20429;-56
2023/01/11 05:30:18;;;;;;;1.43;1.33;;;;;;;7.37;100.00;94823.81;5111750;28;20501;-56
2023/01/11 05:32:47;;;;;;;4.03;1.07;;;;;;;7.36;100.00;94849.38;5112205;28;20416;-56
2023/01/11 05:35:15;;;;;;;1.30;0.80;;;;;;;7.42;100.00;94850.19;5111622;28;20456;-56
2023/01/11 05:37:43;;;;;;;9.10;1.90;;;;;;;7.38;100.00;94839.41;5111023;28;20428;-57
2023/01/11 05:40:12;;;;;;;1.27;1.27;;;;;;;7.38;100.00;94855.22;5111781;28;20885;-57
2023/01/11 05:42:41;;;;;;;0.70;0.70;;;;;;;7.42;100.00;94856.25;5111762;28;20512;-57
2023/01/11 05:47:59;;;;;;;0.30;0.30;;;;;;;7.15;100.00;94813.50;5108257;28;20475;-58
2023/01/11 05:50:28;;;;;;;0.60;0.60;;;;;;;7.33;100.00;94872.84;5110792;28;20915;-58
2023/01/11 05:52:57;;;;;;;0.70;0.53;;;;;;;7.09;100.00;94869.88;5110701;28;20431;-58
2023/01/11 05:55:25;;;;;;;1.17;0.63;;;;;;;7.13;100.00;94863.03;5111581;28;20416;-58
2023/01/11 05:57:54;;;;;;;0.93;0.83;;;;;;;7.12;100.00;94866.72;5111882;28;20829;-58
2023/01/11 06:00:23;;;;;;;1.27;1.27;;;;;;;7.29;100.00;94864.66;5111385;28;20520;-58
2023/01/11 06:02:51;;;;;;;2.87;1.30;;;;;;;7.21;100.00;94878.34;5111443;28;20515;-58
2023/01/11 06:05:21;;;;;;;0.97;0.97;;;;;;;7.15;100.00;94874.13;5111646;28;20432;-57
2023/01/11 06:07:50;;;;;;;1.10;1.10;;;;;;;7.30;100.00;94876.81;5111398;28;20447;-58
2023/01/11 06:10:18;;;;;;;0.57;0.33;;;;;;;7.26;100.00;94874.94;5111557;28;20420;-58
2023/01/11 06:13:25;;;;;;;5.40;1.47;;;;;;;7.44;100.00;94877.88;5111667;28;20476;-58
2023/01/11 06:15:40;;;;;;;6.90;1.10;;;;;;;7.31;100.00;94880.25;5111212;28;20435;-58
2023/01/11 06:18:08;;;;;;;0.70;0.70;;;;;;;7.36;100.00;94886.28;5111536;28;20424;-58
2023/01/11 06:20:39;;;;;;;1.50;0.60;;;;;;;7.15;100.00;94886.50;5111238;28;20772;-58
2023/01/11 06:23:08;;;;;;;1.50;1.50;;;;;;;6.93;100.00;94890.06;5111498;28;20979;-58
2023/01/11 06:25:37;;;;;;;0.70;0.70;;;;;;;7.01;100.00;94896.69;5111420;28;20971;-58
2023/01/11 06:28:05;;;;;;;1.63;1.17;;;;;;;7.26;100.00;94896.81;5111731;28;20438;-58
2023/01/11 06:30:33;;;;;;;0.87;0.87;;;;;;;7.49;100.00;94888.44;5111372;28;20440;-58
2023/01/11 06:33:20;;;;;;;0.60;0.60;;;;;;;7.56;100.00;94888.22;5111553;28;20416;-59
2023/01/11 06:35:51;;;;;;;0.53;0.53;;;;;;;7.34;100.00;94866.50;5111297;28;20443;-58
2023/01/11 06:38:22;;;;;;;2.90;2.80;;;;;;;7.25;100.00;94868.06;5111518;28;20512;-58
2023/01/11 06:40:53;;;;;;;1.50;1.50;;;;;;;7.26;100.00;94885.50;5110987;28;20484;-58
2023/01/11 06:43:22;;;;;;;1.47;1.40;;;;;;;7.40;100.00;94876.84;5110527;28;20492;-59
2023/01/11 06:45:50;;;;;;;0.50;0.50;;;;;;;7.49;100.00;94869.19;5111454;28;20423;-59
2023/01/11 06:48:20;;;;;;;1.57;1.40;;;;;;;7.50;100.00;94871.59;5111631;28;20869;-59
2023/01/11 06:50:51;;;;;;;1.43;1.33;;;;;;;7.19;100.00;94906.00;5110950;28;20578;-59
2023/01/11 06:53:20;;;;;;;1.33;1.33;;;;;;;7.11;100.00;94909.91;5111099;28;20426;-58
2023/01/11 06:55:51;;;;;;;1.97;1.87;;;;;;;7.41;100.00;94904.75;5111528;28;20464;-58
2023/01/11 06:58:19;;;;;;;1.10;1.10;;;;;;;7.45;100.00;94908.47;5113523;28;20508;-58
2023/01/11 07:00:48;;;;;;;1.47;1.20;;;;;;;7.61;100.00;94898.78;5114719;28;20506;-58
2023/01/11 07:03:16;;;;;;;2.13;2.03;;;;;;;6.85;100.00;94792.34;5114314;28;20420;-58
2023/01/11 07:05:45;;;;;;;14.93;1.73;;;;;;;7.82;100.00;94926.00;5113828;28;20523;-58
2023/01/11 07:08:15;;;;;;;2.13;0.87;;;;;;;8.11;100.00;94913.88;5114031;28;20425;-58
2023/01/11 07:10:43;;;;;;;2.30;1.27;;;;;;;7.84;100.00;94839.47;5114178;28;21010;-58
2023/01/11 07:13:14;;;;;;;1.20;1.17;;;;;;;8.60;100.00;94914.16;5114246;28;20425;-58
2023/01/11 07:15:43;;;;;;;1.57;1.50;;;;;;;8.55;100.00;94914.16;5114053;28;20777;-58
2023/01/11 07:18:12;;;;;;;4.93;1.60;;;;;;;8.24;100.00;94881.69;5114565;28;20456;-58
2023/01/11 07:20:40;;;;;;;2.50;2.40;;;;;;;8.60;100.00;94922.09;5114279;28;20420;-58
2023/01/11 07:23:09;;;;;;;5.20;3.83;;;;;;;8.81;99.71;94924.44;5114073;28;20428;-57
2023/01/11 07:25:40;;;;;;;10.23;2.80;;;;;;;8.66;99.73;94927.09;5114458;28;20871;-57
2023/01/11 07:28:08;;;;;;;2.60;2.10;;;;;;;8.97;97.92;94925.19;5114009;28;20425;-57
2023/01/11 07:30:39;;;;;;;3.37;3.23;;;;;;;8.70;97.70;94885.84;5113703;28;20431;-57
2023/01/11 07:33:27;;;;;;;4.27;1.57;;;;;;;9.17;93.35;94911.13;5113840;28;20434;-57
2023/01/11 07:35:57;;;;;;;2.53;2.47;;;;;;;9.34;93.44;94936.16;5114154;28;20444;-57
2023/01/11 07:38:25;;;;;;;3.37;1.93;;;;;;;9.20;94.06;94934.38;5113856;28;20424;-56
2023/01/11 07:40:55;;;;;;;2.20;2.10;;;;;;;9.18;95.38;94936.50;5113904;28;20421;-56
2023/01/11 07:43:22;;;;;;;2.57;2.47;;;;;;;9.32;96.10;94934.84;5114138;28;20427;-57
2023/01/11 07:45:52;;;;;;;5.07;2.93;;;;;;;8.77;96.27;94893.53;5113707;28;20493;-56
2023/01/11 07:48:23;;;;;;;5.33;5.23;;;;;;;9.42;96.22;94950.69;5114001;28;20451;-56
2023/01/11 07:50:53;;;;;;;8.13;3.80;;;;;;;9.12;96.58;94953.44;5113384;28;20506;-56
2023/01/11 07:53:24;;;;;;;5.50;4.97;;;;;;;8.69;98.72;94958.25;5114087;28;20804;-57
2023/01/11 07:55:55;;;;;;;5.40;5.20;;;;;;;8.74;97.28;94974.13;5113342;28;20429;-57
2023/01/11 07:58:23;;;;;;;5.80;5.40;;;;;;;8.52;99.04;94975.44;5113689;28;20475;-57
2023/01/11 08:00:52;;;;;;;4.00;2.60;;;;;;;8.82;99.93;94973.59;5113349;28;20513;-57
2023/01/11 08:03:20;;;;;;;1.47;1.37;;;;;;;9.10;96.07;94980.16;5113274;28;20443;-57
2023/01/11 08:05:50;;;;;;;4.90;1.40;;;;;;;8.91;97.49;94981.75;5113404;28;20994;-56
2023/01/11 08:08:19;;;;;;;1.70;1.60;;;;;;;8.49;97.80;94982.03;5113015;28;20513;-57
2023/01/11 08:14:37;;;;;;;2.70;2.53;;;;;;;8.92;99.43;94994.72;5113220;28;20514;-57
2023/01/11 08:16:23;;;;;;;1.37;1.37;;;;;;;8.97;100.00;95004.47;5113679;28;20508;-56
2023/01/11 08:18:51;;;;;;;1.60;1.60;;;;;;;8.91;100.00;95014.25;5113380;28;20434;-58
2023/01/11 08:21:20;;;;;;;2.73;2.50;;;;;;;8.85;100.00;95010.03;5113263;28;20983;-58
2023/01/11 08:23:53;;;;;;;1.67;1.57;;;;;;;8.91;100.00;95001.03;5112554;28;20527;-57
2023/01/11 08:26:22;;;;;;;1.80;1.67;;;;;;;8.62;100.00;95025.63;5112962;28;20466;-58
2023/01/11 08:28:53;;;;;;;3.07;2.47;;;;;;;8.30;100.00;95028.47;5113270;28;20500;-57
2023/01/11 08:31:23;;;;;;;0.80;0.57;;;;;;;8.59;100.00;94968.03;5112942;28;20887;-58
2023/01/11 08:33:52;;;;;;;0.97;0.97;;;;;;;9.79;100.00;95027.78;5113232;28;20419;-59
2023/01/11 08:36:20;;;;;;;1.03;1.03;;;;;;;10.41;96.16;94974.28;5112279;28;20461;-58
2023/01/11 08:38:48;;;;;;;0.80;0.80;;;;;;;11.58;89.73;95011.13;5112670;28;20484;-59
2023/01/11 08:41:17;;;;;;;18.23;1.70;;;;;;;12.35;85.15;95012.56;5112933;28;20894;-58
2023/01/11 08:43:46;;;;;;;3.67;3.37;;;;;;;12.67;81.98;95020.63;5112301;28;20512;-58
2023/01/11 08:46:17;;;;;;;2.40;1.60;;;;;;;11.66;81.53;95002.56;5112088;28;20848;-58
2023/01/11 08:48:46;;;;;;;2.33;1.27;;;;;;;11.10;82.69;94981.91;5112757;28;20868;-58
2023/01/11 08:51:15;;;;;;;1.33;0.73;;;;;;;11.77;80.92;95014.66;5112422;28;20500;-58
2023/01/11 08:53:43;;;;;;;2.67;2.20;;;;;;;10.70;85.37;95025.44;5112433;28;20482;-57
2023/01/11 08:56:12;;;;;;;0.80;0.77;;;;;;;10.82;85.67;95027.78;5112659;28;20428;-57
2023/01/11 08:58:40;;;;;;;0.40;0.40;;;;;;;10.25;86.56;95017.81;5112223;28;20426;-57
2023/01/11 09:01:08;;;;;;;0.40;0.40;;;;;;;10.66;87.36;95036.88;5112546;28;20425;-57
2023/01/11 09:03:38;;;;;;;3.50;0.97;;;;;;;10.61;85.32;95034.28;5112563;28;20507;-57
2023/01/11 09:06:07;;;;;;;0.53;0.50;;;;;;;10.83;86.12;95037.28;5112056;28;20542;-58
2023/01/11 09:08:35;;;;;;;1.23;0.90;;;;;;;10.28;84.46;95042.97;5112114;28;20420;-58
2023/01/11 09:11:52;;;;;;;0.60;0.50;;;;;;;10.35;85.53;95040.81;5111963;28;20474;-59
2023/01/11 09:13:52;;;;;;;0.40;0.40;;;;;;;10.28;84.99;95048.25;5111939;28;20432;-58
2023/01/11 09:16:20;;;;;;;0.90;0.90;;;;;;;10.31;84.34;95031.81;5111930;28;20420;-59
2023/01/11 09:18:50;;;;;;;0.63;0.63;;;;;;;10.11;83.39;94972.59;5112068;28;20426;-59
2023/01/11 09:21:18;;;;;;;0.60;0.60;;;;;;;10.75;80.71;94971.63;5111700;28;20936;-59
2023/01/11 09:23:47;;;;;;;2.73;1.27;;;;;;;11.74;79.05;95028.50;5111685;28;20412;-59
2023/01/11 09:26:15;;;;;;;0.80;0.80;;;;;;;11.46;76.83;94947.81;5111458;28;20987;-58
2023/01/11 09:28:43;;;;;;;0.60;0.60;;;;;;;11.84;79.06;95012.47;5112159;28;20422;-58
2023/01/11 09:31:12;;;;;;;0.70;0.70;;;;;;;12.29;74.78;94972.03;5112145;28;20421;-58
2023/01/11 09:33:40;;;;;;;0.70;0.70;;;;;;;12.43;74.42;95015.38;5111870;28;20430;-59
2023/01/11 09:36:10;;;;;;;1.00;1.00;;;;;;;12.75;73.02;95004.78;5111764;28;20449;-59
2023/01/11 09:38:39;;;;;;;1.47;1.40;;;;;;;12.45;72.51;95013.22;5111713;28;20473;-58
2023/01/11 09:41:23;;;;;;;0.93;0.90;;;;;;;14.02;67.97;95009.44;5111569;28;20845;-59
2023/01/11 09:44:00;;;;;;;1.37;1.30;;;;;;;14.25;64.88;95001.50;5111765;28;20475;-60
2023/01/11 09:46:29;;;;;;;1.03;0.87;;;;;;;13.69;66.85;95002.66;5111823;28;20502;-59
2023/01/11 09:48:59;;;;;;;1.50;1.50;;;;;;;13.23;66.93;95008.00;5111966;28;20427;-60
2023/01/11 09:51:33;;;;;;;1.03;1.03;;;;;;;14.06;63.56;95003.53;5111604;28;20498;-60
2023/01/11 09:54:06;;;;;;;0.97;0.60;;;;;;;14.54;62.43;94959.31;5111583;28;20517;-60
2023/01/11 09:56:44;;;;;;;1.60;0.90;;;;;;;14.19;62.72;94994.72;5111307;28;20456;-61
2023/01/11 09:59:23;;;;;;;1.87;1.77;;;;;;;14.47;60.91;94983.72;5111624;28;20430;-60
2023/01/11 10:02:04;;;;;;;4.50;2.17;;;;;;;13.94;62.12;94985.38;5111865;28;20880;-61
2023/01/11 10:05:09;;;;;;;0.93;0.93;;;;;;;13.32;63.79;94986.84;5111240;28;20541;-60
2023/01/11 10:07:56;;;;;;;0.53;0.53;;;;;;;13.66;64.44;94991.81;5111502;28;20435;-61
2023/01/11 10:10:55;;;;;;;0.87;0.87;;;;;;;13.61;62.47;95000.66;5111016;28;20442;-61
2023/01/11 10:13:54;;;;;;;0.40;0.40;;;;;;;13.88;61.42;94997.22;5111445;28;20868;-60
2023/01/11 10:16:35;;;;;;;0.60;0.60;;;;;;;13.62;62.61;94994.28;5111252;28;20432;-61
2023/01/11 10:19:46;;;;;;;1.97;1.70;;;;;;;13.58;62.43;94990.63;5111554;28;20455;-62
2023/01/11 10:22:22;;;;;;;0.40;0.30;;;;;;;13.75;61.44;94988.16;5111304;28;20939;-62
2023/01/11 10:24:58;;;;;;;2.07;0.90;;;;;;;13.09;64.04;94969.97;5112293;28;20495;-61
2023/01/11 10:27:34;;;;;;;0.53;0.53;;;;;;;12.84;65.08;94964.25;5119158;28;20537;-61
2023/01/11 10:30:32;;;;;;;1.23;1.13;;;;;;;13.62;65.57;94988.94;5113286;28;20407;-60
2023/01/11 10:33:17;;;;;;;0.87;0.87;;;;;;;13.52;66.61;94985.69;5113884;28;20424;-61
2023/01/11 10:36:09;;;;;;;0.67;0.67;;;;;;;13.64;65.42;94988.63;5115090;28;20419;-61
2023/01/11 10:39:02;;;;;;;0.40;0.30;;;;;;;12.92;66.42;94992.84;5115179;28;20423;-61
2023/01/11 10:41:39;;;;;;;10.57;6.13;;;;;;;13.50;69.72;94975.34;5114989;28;20436;-63
2023/01/11 10:44:18;;;;;;;9.60;6.27;;;;;;;13.08;72.49;94938.34;5115086;28;20416;-64
2023/01/11 10:46:49;;;;;;;4.83;4.53;;;;;;;13.01;69.63;94980.44;5114412;28;20553;-64
2023/01/11 10:49:39;;;;;;;6.20;1.50;;;;;;;12.96;68.95;94980.53;5114940;28;20442;-64
2023/01/11 10:52:21;;;;;;;1.90;1.80;;;;;;;12.64;67.17;94984.78;5114877;28;20431;-59
2023/01/11 10:54:54;;;;;;;0.50;0.50;;;;;;;12.94;66.06;94969.41;5115081;28;20873;-59
2023/01/11 10:57:36;;;;;;;0.87;0.83;;;;;;;13.41;63.63;94955.78;5114750;28;20515;-59
2023/01/11 11:00:34;;;;;;;0.60;0.57;;;;;;;14.12;61.82;94951.69;5114687;28;20435;-59
2023/01/11 11:03:43;;;;;;;0.40;0.30;;;;;;;14.54;61.98;94964.66;5114619;28;20464;-58
2023/01/11 11:06:21;;;;;;;0.43;0.40;;;;;;;14.22;60.82;94951.50;5103977;28;20489;-58
2023/01/11 11:08:57;;;;;;;0.40;0.30;;;;;;;13.95;61.61;94947.00;5114925;28;20508;-58
2023/01/11 11:11:33;;;;;;;0.40;0.40;;;;;;;13.89;61.17;94959.63;5114369;28;20982;-58
2023/01/11 11:14:12;;;;;;;0.57;0.57;;;;;;;13.17;62.78;94953.31;5114139;28;20437;-58
2023/01/11 11:16:53;;;;;;;1.47;0.40;;;;;;;13.53;62.45;94961.44;5114281;28;20411;-58
2023/01/11 11:19:25;;;;;;;1.03;1.03;;;;;;;12.86;64.54;94952.22;5114190;28;20519;-57
2023/01/11 11:21:53;;;;;;;1.67;0.90;;;;;;;12.43;66.00;94962.22;5113948;28;20431;-57
2023/01/11 11:24:31;;;;;;;3.70;0.70;;;;;;;12.83;65.61;94950.16;5114373;28;20431;-57
2023/01/11 11:27:07;;;;;;;0.60;0.40;;;;;;;13.83;65.81;94949.38;5113922;28;20476;-61
2023/01/11 11:29:43;;;;;;;0.70;0.50;;;;;;;13.84;66.64;94959.72;5113980;28;20422;-61
2023/01/11 11:32:21;;;;;;;2.73;0.80;;;;;;;13.77;64.17;94946.03;5115160;28;20419;-61
2023/01/11 11:34:50;;;;;;;1.47;1.10;;;;;;;12.65;66.91;94943.78;5113675;28;20431;-61
2023/01/11 11:37:26;;;;;;;0.50;0.30;;;;;;;11.95;69.38;94944.84;5114049;28;20875;-61
2023/01/11 11:39:55;;;;;;;0.50;0.47;;;;;;;12.51;69.30;94942.97;5113800;28;21010;-61
2023/01/11 11:42:24;;;;;;;0.90;0.70;;;;;;;12.59;67.36;94942.31;5113937;28;20419;-60
2023/01/11 11:45:17;;;;;;;1.53;1.43;;;;;;;14.01;65.75;94949.22;5112614;28;20472;-59
2023/01/11 11:48:06;;;;;;;1.50;1.40;;;;;;;15.44;64.30;94942.09;5104629;28;20490;-61
2023/01/11 11:50:35;;;;;;;1.87;1.80;;;;;;;15.62;62.46;94903.69;5107690;28;20495;-63
2023/01/11 11:53:23;;;;;;;0.60;0.60;;;;;;;16.98;59.75;94931.59;5114043;28;20917;-70
2023/01/11 11:55:53;;;;;;;1.03;1.03;;;;;;;16.85;57.17;94924.56;5114441;28;20451;-72
2023/01/11 11:58:25;;;;;;;0.83;0.83;;;;;;;17.55;56.28;94914.13;5113766;28;20420;-70
2023/01/11 12:00:54;;;;;;;0.70;0.70;;;;;;;17.89;55.15;94926.56;5114298;28;20513;-71
2023/01/11 12:03:28;;;;;;;12.27;1.00;;;;;;;17.66;52.98;94928.72;5113695;28;21220;-69
2023/01/11 12:06:00;;;;;;;0.60;0.60;;;;;;;17.41;52.22;94923.44;5113484;28;20423;-70
2023/01/11 12:08:31;;;;;;;1.53;1.43;;;;;;;17.80;52.83;94925.03;5113617;28;20510;-70
2023/01/11 12:11:02;;;;;;;5.97;0.93;;;;;;;18.66;50.46;94920.69;5113513;28;20446;-70
2023/01/11 12:13:34;;;;;;;0.97;0.97;;;;;;;19.03;50.97;94911.63;5113377;28;20467;-65
2023/01/11 12:16:06;;;;;;;0.63;0.63;;;;;;;18.48;51.54;94913.88;5113207;28;20447;-68
2023/01/11 12:18:41;;;;;;;5.13;0.80;;;;;;;18.10;52.24;94916.66;5113075;28;20481;-70